createdAt,value
2018-09-26T00:01:02.102Z,3.1
2018-09-26T00:02:09.306Z,3.1
2018-09-26T00:03:16.246Z,3.1
2018-09-26T00:04:23.448Z,3.1
2018-09-26T00:05:30.654Z,3.1
2018-09-26T00:06:37.866Z,3
2018-09-26T00:07:45.069Z,3
2018-09-26T00:08:52.271Z,3
2018-09-26T00:09:59.477Z,3
2018-09-26T00:11:06.412Z,3
2018-09-26T00:12:13.343Z,3.1
2018-09-26T00:13:20.550Z,3
2018-09-26T00:14:27.754Z,3
2018-09-26T00:15:34.958Z,3
2018-09-26T00:16:42.157Z,3
2018-09-26T00:17:49.621Z,3
2018-09-26T00:18:56.803Z,3
2018-09-26T00:20:03.997Z,3
2018-09-26T00:21:11.205Z,2.9
2018-09-26T00:22:18.405Z,2.9
2018-09-26T00:23:25.334Z,2.9
2018-09-26T00:24:32.541Z,2.9
2018-09-26T00:25:39.474Z,2.9
2018-09-26T00:26:46.679Z,2.9
2018-09-26T00:27:53.884Z,2.9
2018-09-26T00:29:01.090Z,2.8
2018-09-26T00:30:08.301Z,2.8
2018-09-26T00:31:15.497Z,2.9
2018-09-26T00:32:22.462Z,2.8
2018-09-26T00:33:29.113Z,2.8
2018-09-26T00:34:36.316Z,2.8
2018-09-26T00:35:43.719Z,2.8
2018-09-26T00:36:51.126Z,2.8
2018-09-26T00:37:58.330Z,2.7
2018-09-26T00:39:05.531Z,2.7
2018-09-26T00:40:12.740Z,2.7
2018-09-26T00:41:19.670Z,2.7
2018-09-26T00:42:26.871Z,2.7
2018-09-26T00:43:33.807Z,2.7
2018-09-26T00:44:41.007Z,2.7
2018-09-26T00:45:48.209Z,2.7
2018-09-26T00:46:55.147Z,2.7
2018-09-26T00:48:02.375Z,2.7
2018-09-26T00:49:09.301Z,2.7
2018-09-26T00:50:16.504Z,2.6
2018-09-26T00:51:23.717Z,2.6
2018-09-26T00:52:30.922Z,2.5
2018-09-26T00:53:38.125Z,2.4
2018-09-26T00:54:45.331Z,2.4
2018-09-26T00:55:52.543Z,2.4
2018-09-26T00:56:59.745Z,2.5
2018-09-26T00:58:06.950Z,2.5
2018-09-26T00:59:14.153Z,2.5
2018-09-26T01:00:21.360Z,2.5
2018-09-26T01:01:28.570Z,2.5
2018-09-26T01:02:35.776Z,2.5
2018-09-26T01:03:42.701Z,2.4
2018-09-26T01:04:49.903Z,2.4
2018-09-26T01:05:57.130Z,2.3
2018-09-26T01:07:04.337Z,2.4
2018-09-26T01:08:11.572Z,2.4
2018-09-26T01:09:18.540Z,2.4
2018-09-26T01:10:25.740Z,2.4
2018-09-26T01:11:32.960Z,2.4
2018-09-26T01:12:40.166Z,2.4
2018-09-26T01:13:47.365Z,2.4
2018-09-26T01:14:54.591Z,2.4
2018-09-26T01:16:01.787Z,2.3
2018-09-26T01:17:08.993Z,2.3
2018-09-26T01:18:16.194Z,2.3
2018-09-26T01:19:23.395Z,2.3
2018-09-26T01:20:30.325Z,2.4
2018-09-26T01:21:37.520Z,2.4
2018-09-26T01:22:44.732Z,2.3
2018-09-26T01:23:51.942Z,2.2
2018-09-26T01:24:59.145Z,2.2
2018-09-26T01:26:06.346Z,2.2
2018-09-26T01:27:13.548Z,2.2
2018-09-26T01:28:20.757Z,2.2
2018-09-26T01:29:27.954Z,2.3
2018-09-26T01:30:35.160Z,2.3
2018-09-26T01:31:42.371Z,2.3
2018-09-26T01:32:49.571Z,2.3
2018-09-26T01:33:56.496Z,2.3
2018-09-26T01:35:03.707Z,2.3
2018-09-26T01:36:10.907Z,2.4
2018-09-26T01:37:18.103Z,2.4
2018-09-26T01:38:25.312Z,2.4
2018-09-26T01:39:32.253Z,2.3
2018-09-26T01:40:39.471Z,2.3
2018-09-26T01:41:46.675Z,2.3
2018-09-26T01:42:53.906Z,2.3
2018-09-26T01:44:01.106Z,2.3
2018-09-26T01:45:08.022Z,2.3
2018-09-26T01:46:15.233Z,2.3
2018-09-26T01:47:22.173Z,2.3
2018-09-26T01:48:29.381Z,2.3
2018-09-26T01:49:36.319Z,2.3
2018-09-26T01:50:43.514Z,2.4
2018-09-26T01:51:50.711Z,2.4
2018-09-26T01:52:57.913Z,2.4
2018-09-26T01:54:05.116Z,2.4
2018-09-26T01:55:12.322Z,2.4
2018-09-26T01:56:19.537Z,2.4
2018-09-26T01:57:26.742Z,2.4
2018-09-26T01:58:33.948Z,2.3
2018-09-26T01:59:40.874Z,2.3
2018-09-26T02:00:48.077Z,2.3
2018-09-26T02:01:55.283Z,2.3
2018-09-26T02:03:02.491Z,2.3
2018-09-26T02:04:09.690Z,2.3
2018-09-26T02:05:16.890Z,2.2
2018-09-26T02:06:24.091Z,2.2
2018-09-26T02:07:31.300Z,2.2
2018-09-26T02:08:38.493Z,2.2
2018-09-26T02:09:45.691Z,2.2
2018-09-26T02:10:52.899Z,2.2
2018-09-26T02:11:59.823Z,2.2
2018-09-26T02:13:07.024Z,2.2
2018-09-26T02:14:14.227Z,2.2
2018-09-26T02:15:21.429Z,2.2
2018-09-26T02:16:28.629Z,2.2
2018-09-26T02:17:35.852Z,2.2
2018-09-26T02:18:43.056Z,2.2
2018-09-26T02:19:50.268Z,2.2
2018-09-26T02:20:57.477Z,2.2
2018-09-26T02:22:04.685Z,2.2
2018-09-26T02:23:11.891Z,2.2
2018-09-26T02:24:19.091Z,2.2
2018-09-26T02:25:26.034Z,2.2
2018-09-26T02:26:33.235Z,2.2
2018-09-26T02:27:40.439Z,2.2
2018-09-26T02:28:47.634Z,2.2
2018-09-26T02:29:54.838Z,2.2
2018-09-26T02:31:02.043Z,2.2
2018-09-26T02:32:08.976Z,2.2
2018-09-26T02:33:16.177Z,2.2
2018-09-26T02:34:23.380Z,2.2
2018-09-26T02:35:30.620Z,2.2
2018-09-26T02:36:37.824Z,2.1
2018-09-26T02:37:45.025Z,2.1
2018-09-26T02:38:52.225Z,2.1
2018-09-26T02:39:59.431Z,2.1
2018-09-26T02:41:06.629Z,2.1
2018-09-26T02:42:13.864Z,2
2018-09-26T02:43:20.798Z,2
2018-09-26T02:44:27.719Z,2
2018-09-26T02:45:34.922Z,2
2018-09-26T02:46:42.121Z,2
2018-09-26T02:47:49.051Z,2
2018-09-26T02:48:55.983Z,2
2018-09-26T02:50:03.184Z,1.9
2018-09-26T02:51:10.390Z,2
2018-09-26T02:52:17.327Z,2
2018-09-26T02:53:24.525Z,1.9
2018-09-26T02:54:31.731Z,1.9
2018-09-26T02:55:38.670Z,1.9
2018-09-26T02:56:46.007Z,1.9
2018-09-26T02:57:53.203Z,1.9
2018-09-26T02:59:00.409Z,1.9
2018-09-26T03:00:07.616Z,1.9
2018-09-26T03:01:14.548Z,1.9
2018-09-26T03:02:21.759Z,1.9
2018-09-26T03:03:28.685Z,1.9
2018-09-26T03:04:35.900Z,1.8
2018-09-26T03:05:43.096Z,1.8
2018-09-26T03:06:50.023Z,1.8
2018-09-26T03:07:57.233Z,1.8
2018-09-26T03:09:04.435Z,1.9
2018-09-26T03:10:11.370Z,1.9
2018-09-26T03:11:18.572Z,1.9
2018-09-26T03:12:25.780Z,1.9
2018-09-26T03:13:32.698Z,1.8
2018-09-26T03:14:39.901Z,1.9
2018-09-26T03:15:47.113Z,1.9
2018-09-26T03:16:54.325Z,1.9
2018-09-26T03:18:01.524Z,1.8
2018-09-26T03:19:08.729Z,1.8
2018-09-26T03:20:15.937Z,1.8
2018-09-26T03:21:23.137Z,1.8
2018-09-26T03:22:30.353Z,1.8
2018-09-26T03:23:37.555Z,1.8
2018-09-26T03:24:44.762Z,1.8
2018-09-26T03:25:51.971Z,1.9
2018-09-26T03:26:58.900Z,1.8
2018-09-26T03:28:06.102Z,1.9
2018-09-26T03:29:13.310Z,1.9
2018-09-26T03:30:20.518Z,1.9
2018-09-26T03:31:27.740Z,1.8
2018-09-26T03:32:34.933Z,1.8
2018-09-26T03:33:42.354Z,1.8
2018-09-26T03:34:49.885Z,1.9
2018-09-26T03:35:57.097Z,1.9
2018-09-26T03:37:04.306Z,1.9
2018-09-26T03:38:11.519Z,1.9
2018-09-26T03:39:18.448Z,1.9
2018-09-26T03:40:25.649Z,1.9
2018-09-26T03:41:32.305Z,1.9
2018-09-26T03:42:39.517Z,1.9
2018-09-26T03:43:46.725Z,1.9
2018-09-26T03:44:53.384Z,1.9
2018-09-26T03:46:00.315Z,1.9
2018-09-26T03:47:07.245Z,1.9
2018-09-26T03:48:14.482Z,1.9
2018-09-26T03:49:21.701Z,1.9
2018-09-26T03:50:28.902Z,1.9
2018-09-26T03:51:36.110Z,1.9
2018-09-26T03:52:43.306Z,2
2018-09-26T03:53:50.274Z,2
2018-09-26T03:54:57.484Z,1.9
2018-09-26T03:56:04.689Z,2
2018-09-26T03:57:11.899Z,2
2018-09-26T03:58:19.098Z,2
2018-09-26T03:59:26.032Z,2
2018-09-26T04:00:32.973Z,2
2018-09-26T04:01:40.172Z,2
2018-09-26T04:02:47.370Z,2
2018-09-26T04:03:54.575Z,2
2018-09-26T04:05:01.632Z,1.9
2018-09-26T04:06:09.204Z,1.9
2018-09-26T04:07:16.406Z,1.9
2018-09-26T04:08:23.616Z,1.9
2018-09-26T04:09:30.826Z,2
2018-09-26T04:10:38.035Z,1.9
2018-09-26T04:11:44.985Z,1.9
2018-09-26T04:12:52.587Z,1.9
2018-09-26T04:14:00.087Z,1.9
2018-09-26T04:15:07.281Z,1.9
2018-09-26T04:16:14.211Z,1.9
2018-09-26T04:17:21.134Z,1.8
2018-09-26T04:18:28.336Z,1.9
2018-09-26T04:19:35.543Z,1.9
2018-09-26T04:20:42.763Z,1.9
2018-09-26T04:21:49.950Z,1.9
2018-09-26T04:22:57.150Z,1.9
2018-09-26T04:24:04.369Z,1.9
2018-09-26T04:25:11.566Z,1.9
2018-09-26T04:26:19.003Z,1.9
2018-09-26T04:27:26.369Z,1.9
2018-09-26T04:28:33.251Z,1.9
2018-09-26T04:29:40.453Z,1.8
2018-09-26T04:30:47.680Z,1.8
2018-09-26T04:31:54.924Z,1.8
2018-09-26T04:33:02.610Z,1.8
2018-09-26T04:34:10.573Z,1.8
2018-09-26T04:35:17.762Z,1.7
2018-09-26T04:36:24.972Z,1.8
2018-09-26T04:37:32.172Z,1.8
2018-09-26T04:38:39.239Z,1.9
2018-09-26T04:39:46.694Z,1.9
2018-09-26T04:40:53.653Z,1.8
2018-09-26T04:42:00.854Z,1.8
2018-09-26T04:43:08.082Z,1.9
2018-09-26T04:44:15.383Z,1.8
2018-09-26T04:45:22.589Z,1.8
2018-09-26T04:46:29.798Z,1.7
2018-09-26T04:47:36.727Z,1.7
2018-09-26T04:48:43.927Z,1.8
2018-09-26T04:49:51.131Z,1.8
2018-09-26T04:50:58.332Z,1.8
2018-09-26T04:52:05.767Z,1.8
2018-09-26T04:53:12.972Z,1.8
2018-09-26T04:54:20.185Z,1.8
2018-09-26T04:55:27.390Z,1.8
2018-09-26T04:56:34.595Z,1.8
2018-09-26T04:57:41.843Z,1.7
2018-09-26T04:58:49.099Z,1.7
2018-09-26T04:59:56.039Z,1.7
2018-09-26T05:01:02.965Z,1.7
2018-09-26T05:02:10.168Z,1.7
2018-09-26T05:03:17.371Z,1.8
2018-09-26T05:04:24.571Z,1.7
2018-09-26T05:05:31.823Z,1.7
2018-09-26T05:06:39.027Z,1.8
2018-09-26T05:07:46.235Z,1.8
2018-09-26T05:08:53.540Z,1.8
2018-09-26T05:10:00.815Z,1.8
2018-09-26T05:11:08.000Z,1.8
2018-09-26T05:12:15.198Z,1.8
2018-09-26T05:13:22.407Z,1.8
2018-09-26T05:14:29.609Z,1.8
2018-09-26T05:15:36.812Z,1.7
2018-09-26T05:16:44.021Z,1.7
2018-09-26T05:17:51.223Z,1.8
2018-09-26T05:18:58.154Z,1.8
2018-09-26T05:20:05.361Z,1.8
2018-09-26T05:21:12.290Z,1.8
2018-09-26T05:22:19.503Z,1.8
2018-09-26T05:23:26.706Z,1.8
2018-09-26T05:24:33.913Z,1.8
2018-09-26T05:25:41.125Z,1.8
2018-09-26T05:26:48.324Z,1.8
2018-09-26T05:27:55.527Z,1.8
2018-09-26T05:29:02.760Z,1.8
2018-09-26T05:30:09.987Z,1.9
2018-09-26T05:31:17.186Z,1.8
2018-09-26T05:32:24.398Z,1.9
2018-09-26T05:33:31.607Z,1.9
2018-09-26T05:34:38.813Z,2
2018-09-26T05:35:46.028Z,2
2018-09-26T05:36:53.239Z,2
2018-09-26T05:38:00.441Z,2
2018-09-26T05:39:07.369Z,2.1
2018-09-26T05:40:14.301Z,2.2
2018-09-26T05:41:21.228Z,2.2
2018-09-26T05:42:28.442Z,2.2
2018-09-26T05:43:35.645Z,2.3
2018-09-26T05:44:42.578Z,2.3
2018-09-26T05:45:49.785Z,2.4
2018-09-26T05:46:56.990Z,2.4
2018-09-26T05:48:04.198Z,2.4
2018-09-26T05:49:11.405Z,2.4
2018-09-26T05:50:18.371Z,2.4
2018-09-26T05:51:25.708Z,2.4
2018-09-26T05:52:32.913Z,2.5
2018-09-26T05:53:39.846Z,2.6
2018-09-26T05:54:47.072Z,2.6
2018-09-26T05:55:54.277Z,2.8
2018-09-26T05:57:01.512Z,2.9
2018-09-26T05:58:08.732Z,3
2018-09-26T05:59:15.664Z,3.1
2018-09-26T06:00:22.588Z,3.1
2018-09-26T06:01:29.786Z,3.1
2018-09-26T06:02:36.730Z,3.1
2018-09-26T06:03:43.644Z,3.1
2018-09-26T06:04:50.579Z,3.1
2018-09-26T06:05:57.789Z,3.2
2018-09-26T06:07:05.025Z,3.2
2018-09-26T06:08:12.226Z,3.3
2018-09-26T06:09:19.156Z,3.4
2018-09-26T06:10:26.359Z,3.4
2018-09-26T06:11:33.559Z,3.4
2018-09-26T06:12:40.987Z,3.5
2018-09-26T06:13:48.345Z,3.5
2018-09-26T06:14:55.552Z,3.5
2018-09-26T06:16:02.485Z,3.6
2018-09-26T06:17:09.688Z,3.7
2018-09-26T06:18:16.896Z,3.8
2018-09-26T06:19:24.105Z,3.8
2018-09-26T06:20:31.312Z,3.9
2018-09-26T06:21:38.239Z,4
2018-09-26T06:22:45.444Z,4.1
2018-09-26T06:23:52.371Z,4.2
2018-09-26T06:24:59.583Z,4.3
2018-09-26T06:26:06.517Z,4.3
2018-09-26T06:27:13.725Z,4.4
2018-09-26T06:28:20.929Z,4.4
2018-09-26T06:29:27.859Z,4.4
2018-09-26T06:30:35.082Z,4.4
2018-09-26T06:31:42.006Z,4.5
2018-09-26T06:32:49.215Z,4.5
2018-09-26T06:33:56.456Z,4.6
2018-09-26T06:35:03.839Z,4.7
2018-09-26T06:36:11.447Z,4.8
2018-09-26T06:37:18.659Z,5
2018-09-26T06:38:25.579Z,5.2
2018-09-26T06:39:32.785Z,5.3
2018-09-26T06:40:39.990Z,5.5
2018-09-26T06:41:47.202Z,5.7
2018-09-26T06:42:54.409Z,5.7
2018-09-26T06:44:01.610Z,5.7
2018-09-26T06:45:08.860Z,5.7
2018-09-26T06:46:16.062Z,5.8
2018-09-26T06:47:23.128Z,5.7
2018-09-26T06:48:30.419Z,5.6
2018-09-26T06:49:37.627Z,5.7
2018-09-26T06:50:45.064Z,5.7
2018-09-26T06:51:52.255Z,5.8
2018-09-26T06:52:59.184Z,6
2018-09-26T06:54:06.663Z,6.1
2018-09-26T06:55:14.035Z,6.2
2018-09-26T06:56:20.694Z,6.3
2018-09-26T06:57:27.899Z,6.4
2018-09-26T06:58:34.848Z,6.5
2018-09-26T06:59:42.059Z,6.6
2018-09-26T07:00:49.262Z,6.8
2018-09-26T07:01:56.462Z,6.9
2018-09-26T07:03:03.690Z,7
2018-09-26T07:04:10.615Z,7
2018-09-26T07:05:17.815Z,6.9
2018-09-26T07:06:25.028Z,7
2018-09-26T07:07:31.963Z,7
2018-09-26T07:08:39.171Z,7
2018-09-26T07:09:46.383Z,7.2
2018-09-26T07:10:53.581Z,7.3
2018-09-26T07:12:00.872Z,7.4
2018-09-26T07:13:08.139Z,7.5
2018-09-26T07:14:15.345Z,7.7
2018-09-26T07:15:22.549Z,7.9
2018-09-26T07:16:29.752Z,8.1
2018-09-26T07:17:36.965Z,8.4
2018-09-26T07:18:43.909Z,8.7
2018-09-26T07:19:51.118Z,8.7
2018-09-26T07:20:58.328Z,8.8
2018-09-26T07:22:05.540Z,8.9
2018-09-26T07:23:12.746Z,8.9
2018-09-26T07:24:19.953Z,8.8
2018-09-26T07:25:27.162Z,8.7
2018-09-26T07:26:34.102Z,8.8
2018-09-26T07:27:41.304Z,8.8
2018-09-26T07:28:48.505Z,8.9
2018-09-26T07:29:55.445Z,9
2018-09-26T07:31:02.763Z,9.1
2018-09-26T07:32:10.151Z,9.2
2018-09-26T07:33:17.093Z,9.2
2018-09-26T07:34:24.299Z,9.2
2018-09-26T07:35:31.511Z,9.2
2018-09-26T07:36:38.444Z,9.2
2018-09-26T07:37:45.647Z,9.2
2018-09-26T07:38:52.854Z,9.1
2018-09-26T07:40:00.066Z,9.2
2018-09-26T07:41:07.273Z,9.2
2018-09-26T07:42:14.478Z,9.3
2018-09-26T07:43:21.620Z,9.4
2018-09-26T07:44:28.556Z,9.4
2018-09-26T07:45:35.532Z,9.5
2018-09-26T07:46:43.183Z,9.5
2018-09-26T07:47:49.567Z,9.5
2018-09-26T07:48:56.507Z,9.5
2018-09-26T07:50:03.445Z,9.5
2018-09-26T07:51:10.104Z,9.7
2018-09-26T07:52:17.311Z,9.9
2018-09-26T07:53:24.257Z,10.1
2018-09-26T07:54:30.638Z,10.3
2018-09-26T07:55:37.293Z,10.5
2018-09-26T07:56:44.221Z,10.6
2018-09-26T07:57:50.878Z,10.8
2018-09-26T07:58:58.174Z,10.9
2018-09-26T08:00:05.688Z,10.7
2018-09-26T08:01:12.590Z,10.7
2018-09-26T08:02:20.014Z,10.8
2018-09-26T08:03:27.224Z,10.9
2018-09-26T08:04:34.154Z,11
2018-09-26T08:05:41.358Z,11
2018-09-26T08:06:48.571Z,11.1
2018-09-26T08:07:55.777Z,11.2
2018-09-26T08:09:02.983Z,11.2
2018-09-26T08:10:10.200Z,11
2018-09-26T08:11:17.485Z,10.9
2018-09-26T08:12:24.802Z,10.8
2018-09-26T08:13:32.012Z,10.8
2018-09-26T08:14:39.227Z,10.8
2018-09-26T08:15:46.430Z,10.8
2018-09-26T08:16:53.638Z,10.9
2018-09-26T08:18:00.896Z,11
2018-09-26T08:19:08.168Z,11
2018-09-26T08:20:15.373Z,11
2018-09-26T08:21:22.579Z,11.1
2018-09-26T08:22:29.541Z,11.2
2018-09-26T08:23:36.489Z,11.2
2018-09-26T08:24:43.769Z,11.1
2018-09-26T08:25:50.708Z,11.1
2018-09-26T08:26:57.904Z,11.1
2018-09-26T08:28:05.148Z,11.2
2018-09-26T08:29:12.356Z,11.2
2018-09-26T08:30:19.019Z,11.2
2018-09-26T08:31:26.224Z,11.4
2018-09-26T08:32:33.435Z,11.4
2018-09-26T08:33:40.637Z,11.4
2018-09-26T08:34:47.572Z,11.4
2018-09-26T08:35:54.782Z,11.5
2018-09-26T08:37:01.994Z,11.6
2018-09-26T08:38:09.213Z,11.7
2018-09-26T08:39:16.424Z,11.9
2018-09-26T08:40:23.632Z,11.8
2018-09-26T08:41:30.846Z,11.8
2018-09-26T08:42:38.073Z,11.9
2018-09-26T08:43:45.374Z,12.1
2018-09-26T08:44:52.718Z,12
2018-09-26T08:45:59.658Z,12.1
2018-09-26T08:47:06.873Z,12.2
2018-09-26T08:48:13.543Z,12.1
2018-09-26T08:49:20.753Z,12.1
2018-09-26T08:50:27.970Z,12.2
2018-09-26T08:51:35.179Z,12.2
2018-09-26T08:52:42.391Z,12.1
2018-09-26T08:53:49.853Z,12.1
2018-09-26T08:54:57.258Z,12
2018-09-26T08:56:04.474Z,12.1
2018-09-26T08:57:11.688Z,12.2
2018-09-26T08:58:18.895Z,12.2
2018-09-26T08:59:26.101Z,12.2
2018-09-26T09:00:33.312Z,12.3
2018-09-26T09:01:40.522Z,12.5
2018-09-26T09:02:47.737Z,12.5
2018-09-26T09:03:54.945Z,12.5
2018-09-26T09:05:02.162Z,12.6
2018-09-26T09:06:09.486Z,12.7
2018-09-26T09:07:16.836Z,12.7
2018-09-26T09:08:24.051Z,12.8
2018-09-26T09:09:31.262Z,13.1
2018-09-26T09:10:38.471Z,13.2
2018-09-26T09:11:45.847Z,13.3
2018-09-26T09:12:53.395Z,13.6
2018-09-26T09:14:00.600Z,13.5
2018-09-26T09:15:07.815Z,13.4
2018-09-26T09:16:15.029Z,13.2
2018-09-26T09:17:22.240Z,13.2
2018-09-26T09:18:29.450Z,13.3
2018-09-26T09:19:36.386Z,13.3
2018-09-26T09:20:43.592Z,13.4
2018-09-26T09:21:50.255Z,13.4
2018-09-26T09:22:57.468Z,13.7
2018-09-26T09:24:04.677Z,13.9
2018-09-26T09:25:11.620Z,13.7
2018-09-26T09:26:19.003Z,13.7
2018-09-26T09:27:26.220Z,13.5
2018-09-26T09:28:33.593Z,13.5
2018-09-26T09:29:40.805Z,13.4
2018-09-26T09:30:48.014Z,13.5
2018-09-26T09:31:55.221Z,13.6
2018-09-26T09:33:02.158Z,13.7
2018-09-26T09:34:09.366Z,13.8
2018-09-26T09:35:16.308Z,14.1
2018-09-26T09:36:23.545Z,14.4
2018-09-26T09:37:30.871Z,14.4
2018-09-26T09:38:38.086Z,14.2
2018-09-26T09:39:45.293Z,14.3
2018-09-26T09:40:52.510Z,14.4
2018-09-26T09:41:59.726Z,14.5
2018-09-26T09:43:06.936Z,14.6
2018-09-26T09:44:14.201Z,14.7
2018-09-26T09:45:21.511Z,14.6
2018-09-26T09:46:28.444Z,14.5
2018-09-26T09:47:35.662Z,14.7
2018-09-26T09:48:42.880Z,14.8
2018-09-26T09:49:50.091Z,14.8
2018-09-26T09:50:57.305Z,14.6
2018-09-26T09:52:04.515Z,14.6
2018-09-26T09:53:11.724Z,14.5
2018-09-26T09:54:18.941Z,14.6
2018-09-26T09:55:26.150Z,14.7
2018-09-26T09:56:33.079Z,14.7
2018-09-26T09:57:40.295Z,14.8
2018-09-26T09:58:47.525Z,14.9
2018-09-26T09:59:54.732Z,14.9
2018-09-26T10:01:01.943Z,14.7
2018-09-26T10:02:09.169Z,14.6
2018-09-26T10:03:16.480Z,14.6
2018-09-26T10:04:23.692Z,14.6
2018-09-26T10:05:30.915Z,14.6
2018-09-26T10:06:38.123Z,14.7
2018-09-26T10:07:45.336Z,15
2018-09-26T10:08:52.832Z,15.2
2018-09-26T10:10:00.336Z,15.2
2018-09-26T10:11:07.545Z,15.3
2018-09-26T10:12:14.754Z,15.3
2018-09-26T10:13:21.965Z,15.5
2018-09-26T10:14:29.363Z,15.8
2018-09-26T10:15:36.923Z,15.8
2018-09-26T10:16:44.136Z,15.3
2018-09-26T10:17:51.345Z,15.2
2018-09-26T10:18:58.558Z,15.1
2018-09-26T10:20:05.822Z,14.9
2018-09-26T10:21:13.101Z,14.8
2018-09-26T10:22:20.313Z,15.1
2018-09-26T10:23:27.522Z,15.3
2018-09-26T10:24:34.733Z,15.3
2018-09-26T10:25:41.981Z,15.4
2018-09-26T10:26:49.231Z,15.7
2018-09-26T10:27:56.446Z,15.7
2018-09-26T10:29:03.658Z,15.7
2018-09-26T10:30:10.878Z,15.8
2018-09-26T10:31:18.098Z,16.1
2018-09-26T10:32:25.529Z,16.2
2018-09-26T10:33:33.008Z,16.2
2018-09-26T10:34:39.945Z,16.3
2018-09-26T10:35:47.154Z,16.2
2018-09-26T10:36:54.366Z,16.1
2018-09-26T10:38:01.575Z,16.1
2018-09-26T10:39:08.786Z,16
2018-09-26T10:40:15.465Z,16.2
2018-09-26T10:41:22.693Z,16.2
2018-09-26T10:42:29.894Z,16.3
2018-09-26T10:43:37.105Z,16.2
2018-09-26T10:44:44.315Z,16.4
2018-09-26T10:45:51.536Z,16.5
2018-09-26T10:46:58.748Z,16.8
2018-09-26T10:48:05.962Z,16.9
2018-09-26T10:49:13.168Z,16.7
2018-09-26T10:50:20.571Z,16.6
2018-09-26T10:51:28.295Z,16.6
2018-09-26T10:52:35.505Z,16.8
2018-09-26T10:53:42.714Z,16.7
2018-09-26T10:54:49.923Z,16.6
2018-09-26T10:55:57.143Z,16.9
2018-09-26T10:57:04.355Z,17.2
2018-09-26T10:58:11.573Z,17.2
2018-09-26T10:59:18.788Z,17
2018-09-26T11:00:26.015Z,16.7
2018-09-26T11:01:33.237Z,16.6
2018-09-26T11:02:40.466Z,16.8
2018-09-26T11:03:47.679Z,16.9
2018-09-26T11:04:54.899Z,17.2
2018-09-26T11:06:02.106Z,17.3
2018-09-26T11:07:09.326Z,17.6
2018-09-26T11:08:16.573Z,17.6
2018-09-26T11:09:23.899Z,17.6
2018-09-26T11:10:31.104Z,17.7
2018-09-26T11:11:38.314Z,17.8
2018-09-26T11:12:45.955Z,17.8
2018-09-26T11:13:53.423Z,17.2
2018-09-26T11:15:00.641Z,17
2018-09-26T11:16:07.943Z,17
2018-09-26T11:17:15.277Z,17.1
2018-09-26T11:18:22.490Z,17.3
2018-09-26T11:19:29.706Z,17.2
2018-09-26T11:20:36.998Z,17.2
2018-09-26T11:21:44.293Z,17.4
2018-09-26T11:22:51.505Z,17.7
2018-09-26T11:23:58.453Z,17.9
2018-09-26T11:25:05.376Z,18.1
2018-09-26T11:26:12.481Z,18
2018-09-26T11:27:19.927Z,18.1
2018-09-26T11:28:26.963Z,18.4
2018-09-26T11:29:34.385Z,18.6
2018-09-26T11:30:41.614Z,18.7
2018-09-26T11:31:48.818Z,18.4
2018-09-26T11:32:56.031Z,18
2018-09-26T11:34:03.241Z,17.6
2018-09-26T11:35:10.454Z,17.8
2018-09-26T11:36:17.664Z,17.8
2018-09-26T11:37:24.881Z,17.9
2018-09-26T11:38:32.087Z,18.3
2018-09-26T11:39:39.298Z,18.7
2018-09-26T11:40:46.524Z,19.1
2018-09-26T11:41:53.719Z,19.4
2018-09-26T11:43:00.931Z,19.5
2018-09-26T11:44:08.156Z,19.5
2018-09-26T11:45:15.442Z,19.5
2018-09-26T11:46:22.915Z,19.3
2018-09-26T11:47:30.377Z,19.1
2018-09-26T11:48:37.592Z,18.8
2018-09-26T11:49:44.803Z,18.6
2018-09-26T11:50:52.017Z,18.7
2018-09-26T11:51:58.955Z,19.1
2018-09-26T11:53:06.166Z,19.4
2018-09-26T11:54:13.376Z,19.4
2018-09-26T11:55:20.514Z,19.5
2018-09-26T11:56:27.559Z,19.8
2018-09-26T11:57:34.884Z,19.8
2018-09-26T11:58:41.821Z,19.4
2018-09-26T11:59:49.036Z,19.4
2018-09-26T12:00:55.977Z,19.4
2018-09-26T12:02:03.463Z,19.4
2018-09-26T12:03:10.808Z,19.7
2018-09-26T12:04:18.308Z,19.9
2018-09-26T12:05:25.710Z,20.1
2018-09-26T12:06:32.943Z,19.9
2018-09-26T12:07:39.987Z,19.7
2018-09-26T12:08:47.203Z,19.5
2018-09-26T12:09:54.418Z,19.4
2018-09-26T12:11:01.635Z,19.5
2018-09-26T12:12:08.932Z,19.6
2018-09-26T12:13:16.230Z,19.8
2018-09-26T12:14:23.446Z,20
2018-09-26T12:15:30.657Z,20
2018-09-26T12:16:37.599Z,20
2018-09-26T12:17:44.812Z,19.9
2018-09-26T12:18:52.025Z,19.9
2018-09-26T12:19:59.240Z,19.6
2018-09-26T12:21:06.454Z,19.1
2018-09-26T12:22:13.985Z,18.9
2018-09-26T12:23:21.453Z,18.9
2018-09-26T12:24:28.660Z,19
2018-09-26T12:25:35.874Z,18.9
2018-09-26T12:26:43.090Z,19
2018-09-26T12:27:50.475Z,19.2
2018-09-26T12:28:57.854Z,19.4
2018-09-26T12:30:05.095Z,19.6
2018-09-26T12:31:12.369Z,19.4
2018-09-26T12:32:19.591Z,19.2
2018-09-26T12:33:26.823Z,19.2
2018-09-26T12:34:34.029Z,19.4
2018-09-26T12:35:41.242Z,19.4
2018-09-26T12:36:48.454Z,19.5
2018-09-26T12:37:55.668Z,19.7
2018-09-26T12:39:02.887Z,19.8
2018-09-26T12:40:10.183Z,20
2018-09-26T12:41:17.236Z,19.9
2018-09-26T12:42:24.727Z,20.1
2018-09-26T12:43:32.293Z,19.9
2018-09-26T12:44:39.712Z,19.6
2018-09-26T12:45:46.925Z,19.4
2018-09-26T12:46:53.873Z,19.3
2018-09-26T12:48:01.287Z,19.5
2018-09-26T12:49:08.624Z,19.3
2018-09-26T12:50:15.564Z,18.9
2018-09-26T12:51:22.780Z,19.1
2018-09-26T12:52:29.725Z,19.1
2018-09-26T12:53:37.205Z,19.3
2018-09-26T12:54:44.351Z,19.3
2018-09-26T12:55:51.291Z,19.4
2018-09-26T12:56:58.510Z,19.4
2018-09-26T12:58:05.833Z,19.5
2018-09-26T12:59:13.087Z,19.8
2018-09-26T13:00:20.431Z,19.8
2018-09-26T13:01:28.042Z,19.7
2018-09-26T13:02:35.415Z,19.6
2018-09-26T13:03:42.695Z,19.7
2018-09-26T13:04:49.910Z,20
2018-09-26T13:05:57.123Z,20
2018-09-26T13:07:04.342Z,19.6
2018-09-26T13:08:11.307Z,19.7
2018-09-26T13:09:18.547Z,19.7
2018-09-26T13:10:26.001Z,19.8
2018-09-26T13:11:33.498Z,19.7
2018-09-26T13:12:40.437Z,19.7
2018-09-26T13:13:47.658Z,20
2018-09-26T13:14:54.874Z,20.2
2018-09-26T13:16:01.829Z,20.3
2018-09-26T13:17:09.047Z,20.4
2018-09-26T13:18:16.316Z,20.5
2018-09-26T13:19:23.372Z,20.3
2018-09-26T13:20:30.586Z,20.5
2018-09-26T13:21:37.797Z,20.6
2018-09-26T13:22:45.005Z,20.2
2018-09-26T13:23:52.228Z,19.6
2018-09-26T13:24:59.438Z,19.4
2018-09-26T13:26:06.439Z,19.5
2018-09-26T13:27:13.655Z,19.8
2018-09-26T13:28:21.036Z,20.1
2018-09-26T13:29:28.438Z,20.3
2018-09-26T13:30:35.659Z,20.6
2018-09-26T13:31:42.882Z,20.7
2018-09-26T13:32:50.104Z,20.7
2018-09-26T13:33:57.314Z,20.9
2018-09-26T13:35:04.529Z,20.7
2018-09-26T13:36:11.798Z,20.6
2018-09-26T13:37:19.056Z,20.2
2018-09-26T13:38:26.477Z,20.1
2018-09-26T13:39:34.001Z,20.1
2018-09-26T13:40:41.733Z,20.1
2018-09-26T13:41:48.960Z,20.1
2018-09-26T13:42:56.181Z,20
2018-09-26T13:44:03.395Z,19.7
2018-09-26T13:45:10.608Z,19.6
2018-09-26T13:46:18.110Z,19.5
2018-09-26T13:47:25.828Z,19.5
2018-09-26T13:48:33.249Z,19.5
2018-09-26T13:49:40.460Z,19.4
2018-09-26T13:50:47.678Z,19.3
2018-09-26T13:51:54.894Z,19.4
2018-09-26T13:53:01.836Z,19.6
2018-09-26T13:54:09.287Z,19.7
2018-09-26T13:55:16.647Z,19.8
2018-09-26T13:56:23.953Z,19.9
2018-09-26T13:57:31.579Z,19.9
2018-09-26T13:58:38.793Z,19.9
2018-09-26T13:59:46.036Z,19.8
2018-09-26T14:00:53.264Z,19.6
2018-09-26T14:02:00.474Z,19.4
2018-09-26T14:03:07.420Z,19.4
2018-09-26T14:04:14.673Z,19.3
2018-09-26T14:05:22.081Z,19.4
2018-09-26T14:06:28.752Z,19.5
2018-09-26T14:07:35.963Z,19.6
2018-09-26T14:08:43.334Z,19.6
2018-09-26T14:09:50.548Z,19.4
2018-09-26T14:10:57.766Z,19.3
2018-09-26T14:12:04.983Z,19.3
2018-09-26T14:13:12.196Z,19.5
2018-09-26T14:14:19.612Z,19.6
2018-09-26T14:15:27.011Z,19.5
2018-09-26T14:16:34.218Z,19.5
2018-09-26T14:17:41.433Z,19.4
2018-09-26T14:18:48.653Z,19.5
2018-09-26T14:19:55.867Z,19.6
2018-09-26T14:21:03.084Z,19.5
2018-09-26T14:22:10.365Z,19.6
2018-09-26T14:23:17.558Z,20
2018-09-26T14:24:24.892Z,20.2
2018-09-26T14:25:46.756Z,20.4
2018-09-26T14:26:53.705Z,20.6
2018-09-26T14:28:01.081Z,20.6
2018-09-26T14:29:08.354Z,20.6
2018-09-26T14:30:15.862Z,20.5
2018-09-26T14:31:23.339Z,20.6
2018-09-26T14:32:30.759Z,20.6
2018-09-26T14:33:38.011Z,20.7
2018-09-26T14:34:45.353Z,20.8
2018-09-26T14:35:52.563Z,20.5
2018-09-26T14:36:59.776Z,20.4
2018-09-26T14:38:07.039Z,20.1
2018-09-26T14:39:14.502Z,19.8
2018-09-26T14:40:21.921Z,19.9
2018-09-26T14:41:29.134Z,20.1
2018-09-26T14:42:36.350Z,20.3
2018-09-26T14:43:43.564Z,20.5
2018-09-26T14:44:50.782Z,20.6
2018-09-26T14:45:58.316Z,20.6
2018-09-26T14:47:05.925Z,20.3
2018-09-26T14:48:13.183Z,20.2
2018-09-26T14:49:20.505Z,20.1
2018-09-26T14:50:28.055Z,20.1
2018-09-26T14:51:35.266Z,19.9
2018-09-26T14:52:42.595Z,19.7
2018-09-26T14:53:49.977Z,19.8
2018-09-26T14:54:57.197Z,19.7
2018-09-26T14:56:04.461Z,19.5
2018-09-26T14:57:11.841Z,19.5
2018-09-26T14:58:19.193Z,19.5
2018-09-26T14:59:26.488Z,19.5
2018-09-26T15:00:33.700Z,19.5
2018-09-26T15:01:40.916Z,19.5
2018-09-26T15:02:48.340Z,19.5
2018-09-26T15:03:55.551Z,19.5
2018-09-26T15:05:02.767Z,19.5
2018-09-26T15:06:10.054Z,19.4
2018-09-26T15:07:17.285Z,19.2
2018-09-26T15:08:24.618Z,19
2018-09-26T15:09:32.074Z,18.9
2018-09-26T15:10:39.285Z,18.8
2018-09-26T15:11:46.280Z,18.8
2018-09-26T15:12:53.613Z,18.8
2018-09-26T15:14:00.820Z,18.8
2018-09-26T15:15:07.757Z,18.9
2018-09-26T15:16:15.022Z,18.9